sensor_id;sensor_type;location;lat;lon;timestamp;pressure;altitude;pressure_sealevel;temperature;humidity
11648;BME280;5880;52.342;9.662;2023-05-03T00:00:55;102220.59;;;11.11;41.48
11648;BME280;5880;52.342;9.662;2023-05-03T00:03:20;102223.31;;;11.11;41.62
11648;BME280;5880;52.342;9.662;2023-05-03T00:05:48;102212.31;;;11.04;41.52
11648;BME280;5880;52.342;9.662;2023-05-03T00:08:14;102212.97;;;11.06;41.54
11648;BME280;5880;52.342;9.662;2023-05-03T00:10:40;102225.59;;;11.07;41.43
11648;BME280;5880;52.342;9.662;2023-05-03T00:13:06;102227.50;;;11.07;41.84
11648;BME280;5880;52.342;9.662;2023-05-03T00:15:32;102219.88;;;11.02;41.51
11648;BME280;5880;52.342;9.662;2023-05-03T00:17:57;102208.69;;;10.97;41.86
11648;BME280;5880;52.342;9.662;2023-05-03T00:20:23;102219.44;;;10.98;41.91
11648;BME280;5880;52.342;9.662;2023-05-03T00:22:49;102223.00;;;10.99;41.74
11648;BME280;5880;52.342;9.662;2023-05-03T00:25:16;102226.16;;;10.96;41.86
11648;BME280;5880;52.342;9.662;2023-05-03T00:27:41;102215.78;;;10.91;41.60
11648;BME280;5880;52.342;9.662;2023-05-03T00:30:08;102217.66;;;10.91;41.90
11648;BME280;5880;52.342;9.662;2023-05-03T00:32:34;102207.91;;;10.82;41.57
11648;BME280;5880;52.342;9.662;2023-05-03T00:35:00;102222.03;;;10.85;41.47
11648;BME280;5880;52.342;9.662;2023-05-03T00:37:26;102223.84;;;10.78;41.77
11648;BME280;5880;52.342;9.662;2023-05-03T00:39:52;102232.06;;;10.78;41.79
11648;BME280;5880;52.342;9.662;2023-05-03T00:42:18;102223.38;;;10.74;41.86
11648;BME280;5880;52.342;9.662;2023-05-03T00:44:43;102228.41;;;10.71;41.59
11648;BME280;5880;52.342;9.662;2023-05-03T00:47:09;102220.59;;;10.68;41.50
11648;BME280;5880;52.342;9.662;2023-05-03T00:49:36;102230.88;;;10.66;41.81
11648;BME280;5880;52.342;9.662;2023-05-03T00:52:01;102228.53;;;10.63;41.67
11648;BME280;5880;52.342;9.662;2023-05-03T00:54:28;102228.91;;;10.60;41.65
11648;BME280;5880;52.342;9.662;2023-05-03T00:56:57;102225.09;;;10.54;41.57
11648;BME280;5880;52.342;9.662;2023-05-03T00:59:23;102220.84;;;10.51;41.64
11648;BME280;5880;52.342;9.662;2023-05-03T01:01:52;102226.50;;;10.50;41.82
11648;BME280;5880;52.342;9.662;2023-05-03T01:04:19;102226.91;;;10.47;41.78
11648;BME280;5880;52.342;9.662;2023-05-03T01:09:36;102223.25;;;10.40;41.85
11648;BME280;5880;52.342;9.662;2023-05-03T01:12:26;102226.56;;;10.35;41.63
11648;BME280;5880;52.342;9.662;2023-05-03T01:15:17;102228.13;;;10.29;41.75
11648;BME280;5880;52.342;9.662;2023-05-03T01:18:06;102235.00;;;10.25;41.74
11648;BME280;5880;52.342;9.662;2023-05-03T01:20:36;102230.97;;;10.21;41.88
11648;BME280;5880;52.342;9.662;2023-05-03T01:23:42;102230.31;;;10.19;41.75
11648;BME280;5880;52.342;9.662;2023-05-03T01:26:20;102234.28;;;10.17;41.99
11648;BME280;5880;52.342;9.662;2023-05-03T01:28:50;102240.97;;;10.14;41.76
11648;BME280;5880;52.342;9.662;2023-05-03T01:31:38;102231.28;;;10.11;41.85
11648;BME280;5880;52.342;9.662;2023-05-03T01:34:49;102237.31;;;10.07;41.75
11648;BME280;5880;52.342;9.662;2023-05-03T01:37:17;102229.38;;;9.97;41.83
11648;BME280;5880;52.342;9.662;2023-05-03T01:40:02;102232.59;;;10.01;41.97
11648;BME280;5880;52.342;9.662;2023-05-03T01:42:41;102230.25;;;9.98;42.19
11648;BME280;5880;52.342;9.662;2023-05-03T01:45:09;102236.72;;;9.97;42.12
11648;BME280;5880;52.342;9.662;2023-05-03T01:47:35;102233.16;;;9.96;42.15
11648;BME280;5880;52.342;9.662;2023-05-03T01:50:01;102234.56;;;9.92;42.07
11648;BME280;5880;52.342;9.662;2023-05-03T01:52:26;102240.69;;;9.94;42.03
11648;BME280;5880;52.342;9.662;2023-05-03T01:54:52;102214.03;;;9.81;42.10
11648;BME280;5880;52.342;9.662;2023-05-03T01:57:18;102236.44;;;9.91;42.26
11648;BME280;5880;52.342;9.662;2023-05-03T01:59:43;102230.50;;;9.88;42.31
11648;BME280;5880;52.342;9.662;2023-05-03T02:02:09;102228.38;;;9.83;42.18
11648;BME280;5880;52.342;9.662;2023-05-03T02:04:35;102236.34;;;9.85;42.32
11648;BME280;5880;52.342;9.662;2023-05-03T02:07:00;102234.56;;;9.77;42.18
11648;BME280;5880;52.342;9.662;2023-05-03T02:09:26;102236.63;;;9.75;42.18
11648;BME280;5880;52.342;9.662;2023-05-03T02:11:51;102240.41;;;9.74;42.36
11648;BME280;5880;52.342;9.662;2023-05-03T02:14:17;102242.47;;;9.72;42.30
11648;BME280;5880;52.342;9.662;2023-05-03T02:16:43;102247.72;;;9.73;42.39
11648;BME280;5880;52.342;9.662;2023-05-03T02:19:08;102245.22;;;9.72;42.49
11648;BME280;5880;52.342;9.662;2023-05-03T02:21:36;102242.84;;;9.69;42.36
11648;BME280;5880;52.342;9.662;2023-05-03T02:24:02;102249.16;;;9.69;42.23
11648;BME280;5880;52.342;9.662;2023-05-03T02:26:28;102251.22;;;9.67;42.73
11648;BME280;5880;52.342;9.662;2023-05-03T02:28:53;102246.50;;;9.61;42.53
11648;BME280;5880;52.342;9.662;2023-05-03T02:31:21;102250.94;;;9.62;42.59
11648;BME280;5880;52.342;9.662;2023-05-03T02:33:47;102258.59;;;9.67;42.58
11648;BME280;5880;52.342;9.662;2023-05-03T02:36:15;102254.13;;;9.66;42.73
11648;BME280;5880;52.342;9.662;2023-05-03T02:38:40;102267.78;;;9.66;42.78
11648;BME280;5880;52.342;9.662;2023-05-03T02:41:06;102268.34;;;9.61;42.89
11648;BME280;5880;52.342;9.662;2023-05-03T02:43:32;102265.06;;;9.66;42.86
11648;BME280;5880;52.342;9.662;2023-05-03T02:45:58;102266.09;;;9.65;42.84
11648;BME280;5880;52.342;9.662;2023-05-03T02:48:23;102263.72;;;9.62;42.95
11648;BME280;5880;52.342;9.662;2023-05-03T02:50:49;102273.25;;;9.66;42.75
11648;BME280;5880;52.342;9.662;2023-05-03T02:53:15;102270.25;;;9.61;42.99
11648;BME280;5880;52.342;9.662;2023-05-03T02:55:42;102270.25;;;9.61;42.90
11648;BME280;5880;52.342;9.662;2023-05-03T02:58:07;102273.25;;;9.66;42.98
11648;BME280;5880;52.342;9.662;2023-05-03T03:00:34;102262.50;;;9.64;43.16
11648;BME280;5880;52.342;9.662;2023-05-03T03:03:00;102270.69;;;9.64;42.97
11648;BME280;5880;52.342;9.662;2023-05-03T03:05:26;102260.16;;;9.61;43.03
11648;BME280;5880;52.342;9.662;2023-05-03T03:07:51;102266.94;;;9.65;43.15
11648;BME280;5880;52.342;9.662;2023-05-03T03:10:17;102266.09;;;9.65;43.10
11648;BME280;5880;52.342;9.662;2023-05-03T03:12:43;102262.88;;;9.61;43.08
11648;BME280;5880;52.342;9.662;2023-05-03T03:15:09;102269.84;;;9.64;43.13
11648;BME280;5880;52.342;9.662;2023-05-03T03:17:35;102271.91;;;9.62;43.15
11648;BME280;5880;52.342;9.662;2023-05-03T03:20:06;102268.72;;;9.58;43.01
11648;BME280;5880;52.342;9.662;2023-05-03T03:22:32;102269.75;;;9.57;43.04
11648;BME280;5880;52.342;9.662;2023-05-03T03:24:57;102262.78;;;9.55;42.90
11648;BME280;5880;52.342;9.662;2023-05-03T03:27:23;102254.13;;;9.51;42.96
11648;BME280;5880;52.342;9.662;2023-05-03T03:29:49;102265.34;;;9.56;42.99
11648;BME280;5880;52.342;9.662;2023-05-03T03:32:15;102269.09;;;9.55;43.05
11648;BME280;5880;52.342;9.662;2023-05-03T03:34:40;102263.16;;;9.51;43.26
11648;BME280;5880;52.342;9.662;2023-05-03T03:37:06;102264.66;;;9.54;43.08
11648;BME280;5880;52.342;9.662;2023-05-03T03:39:32;102262.13;;;9.52;43.08
11648;BME280;5880;52.342;9.662;2023-05-03T03:41:58;102274.06;;;9.51;43.10
11648;BME280;5880;52.342;9.662;2023-05-03T03:44:24;102264.38;;;9.49;43.13
11648;BME280;5880;52.342;9.662;2023-05-03T03:46:50;102257.59;;;9.45;43.20
11648;BME280;5880;52.342;9.662;2023-05-03T03:49:15;102265.41;;;9.48;43.00
11648;BME280;5880;52.342;9.662;2023-05-03T03:51:41;102270.00;;;9.47;43.36
11648;BME280;5880;52.342;9.662;2023-05-03T03:54:06;102266.44;;;9.47;43.10
11648;BME280;5880;52.342;9.662;2023-05-03T03:56:32;102260.50;;;9.43;43.09
11648;BME280;5880;52.342;9.662;2023-05-03T03:58:58;102262.38;;;9.43;43.28
11648;BME280;5880;52.342;9.662;2023-05-03T04:01:23;102266.81;;;9.44;43.24
11648;BME280;5880;52.342;9.662;2023-05-03T04:03:49;102255.59;;;9.39;43.27
11648;BME280;5880;52.342;9.662;2023-05-03T04:06:15;102270.94;;;9.40;43.45
11648;BME280;5880;52.342;9.662;2023-05-03T04:08:40;102261.44;;;9.36;43.56
11648;BME280;5880;52.342;9.662;2023-05-03T04:11:10;102252.84;;;9.39;43.57
11648;BME280;5880;52.342;9.662;2023-05-03T04:13:37;102246.56;;;9.38;43.55
11648;BME280;5880;52.342;9.662;2023-05-03T04:16:04;102252.84;;;9.39;43.75
11648;BME280;5880;52.342;9.662;2023-05-03T04:18:30;102259.19;;;9.39;43.59
11648;BME280;5880;52.342;9.662;2023-05-03T04:20:56;102254.56;;;9.40;43.63
11648;BME280;5880;52.342;9.662;2023-05-03T04:23:21;102259.19;;;9.39;43.79
11648;BME280;5880;52.342;9.662;2023-05-03T04:25:47;102259.38;;;9.38;43.80
11648;BME280;5880;52.342;9.662;2023-05-03T04:28:13;102258.16;;;9.40;43.72
11648;BME280;5880;52.342;9.662;2023-05-03T04:30:40;102263.59;;;9.40;43.93
11648;BME280;5880;52.342;9.662;2023-05-03T04:33:08;102259.19;;;9.39;43.77
11648;BME280;5880;52.342;9.662;2023-05-03T04:35:34;102264.44;;;9.41;43.97
11648;BME280;5880;52.342;9.662;2023-05-03T04:37:59;102263.44;;;9.42;43.87
11648;BME280;5880;52.342;9.662;2023-05-03T04:40:26;102271.41;;;9.43;43.90
11648;BME280;5880;52.342;9.662;2023-05-03T04:42:51;102260.69;;;9.42;43.98
11648;BME280;5880;52.342;9.662;2023-05-03T04:45:17;102272.94;;;9.46;44.05
11648;BME280;5880;52.342;9.662;2023-05-03T04:47:43;102276.69;;;9.45;44.36
11648;BME280;5880;52.342;9.662;2023-05-03T04:50:09;102279.72;;;9.50;44.34
11648;BME280;5880;52.342;9.662;2023-05-03T04:52:35;102274.91;;;9.52;44.44
11648;BME280;5880;52.342;9.662;2023-05-03T04:55:01;102281.16;;;9.61;44.11
11648;BME280;5880;52.342;9.662;2023-05-03T04:57:28;102280.59;;;9.65;44.71
11648;BME280;5880;52.342;9.662;2023-05-03T04:59:53;102263.38;;;9.65;44.52
11648;BME280;5880;52.342;9.662;2023-05-03T05:02:19;102279.94;;;9.78;44.78
11648;BME280;5880;52.342;9.662;2023-05-03T05:04:45;102274.78;;;9.83;44.90
11648;BME280;5880;52.342;9.662;2023-05-03T05:07:12;102284.56;;;9.92;44.85
11648;BME280;5880;52.342;9.662;2023-05-03T05:09:38;102292.31;;;10.04;45.24
11648;BME280;5880;52.342;9.662;2023-05-03T05:12:05;102294.75;;;10.13;45.95
11648;BME280;5880;52.342;9.662;2023-05-03T05:14:30;102287.78;;;10.26;46.73
11648;BME280;5880;52.342;9.662;2023-05-03T05:16:57;102295.81;;;10.42;46.81
11648;BME280;5880;52.342;9.662;2023-05-03T05:19:23;102290.13;;;10.59;47.02
11648;BME280;5880;52.342;9.662;2023-05-03T05:21:49;102287.44;;;10.80;47.28
11648;BME280;5880;52.342;9.662;2023-05-03T05:24:15;102295.56;;;10.95;47.56
11648;BME280;5880;52.342;9.662;2023-05-03T05:26:41;102305.28;;;11.19;47.43
11648;BME280;5880;52.342;9.662;2023-05-03T05:29:08;102292.13;;;11.29;47.24
11648;BME280;5880;52.342;9.662;2023-05-03T05:31:33;102301.63;;;11.55;47.56
11648;BME280;5880;52.342;9.662;2023-05-03T05:34:00;102297.59;;;11.79;47.71
11648;BME280;5880;52.342;9.662;2023-05-03T05:36:26;102303.19;;;12.27;48.36
11648;BME280;5880;52.342;9.662;2023-05-03T05:38:52;102311.69;;;12.94;48.74
11648;BME280;5880;52.342;9.662;2023-05-03T05:41:18;102306.53;;;13.65;48.98
11648;BME280;5880;52.342;9.662;2023-05-03T05:43:43;102315.44;;;14.46;49.23
11648;BME280;5880;52.342;9.662;2023-05-03T05:46:10;102313.91;;;15.33;49.20
11648;BME280;5880;52.342;9.662;2023-05-03T05:48:35;102311.00;;;16.22;48.98
11648;BME280;5880;52.342;9.662;2023-05-03T05:51:01;102314.75;;;17.13;48.80
11648;BME280;5880;52.342;9.662;2023-05-03T05:53:27;102319.97;;;17.99;48.10
11648;BME280;5880;52.342;9.662;2023-05-03T05:55:53;102316.44;;;18.79;47.62
11648;BME280;5880;52.342;9.662;2023-05-03T05:58:19;102319.28;;;19.58;47.06
11648;BME280;5880;52.342;9.662;2023-05-03T06:00:45;102319.09;;;20.38;46.42
11648;BME280;5880;52.342;9.662;2023-05-03T06:03:14;102310.94;;;20.97;45.37
11648;BME280;5880;52.342;9.662;2023-05-03T06:05:40;102306.28;;;21.62;44.87
11648;BME280;5880;52.342;9.662;2023-05-03T06:08:06;102319.56;;;22.30;44.05
11648;BME280;5880;52.342;9.662;2023-05-03T06:10:32;102316.44;;;22.89;43.25
11648;BME280;5880;52.342;9.662;2023-05-03T06:12:58;102329.09;;;23.43;42.68
11648;BME280;5880;52.342;9.662;2023-05-03T06:15:24;102329.94;;;23.95;42.21
11648;BME280;5880;52.342;9.662;2023-05-03T06:17:50;102326.75;;;24.42;41.54
11648;BME280;5880;52.342;9.662;2023-05-03T06:20:16;102343.63;;;24.87;40.28
11648;BME280;5880;52.342;9.662;2023-05-03T06:22:42;102333.94;;;25.24;39.76
11648;BME280;5880;52.342;9.662;2023-05-03T06:25:08;102340.03;;;25.65;39.50
11648;BME280;5880;52.342;9.662;2023-05-03T06:27:35;102343.91;;;26.04;38.64
11648;BME280;5880;52.342;9.662;2023-05-03T06:30:01;102348.03;;;26.36;38.21
11648;BME280;5880;52.342;9.662;2023-05-03T06:32:27;102354.56;;;26.55;37.49
11648;BME280;5880;52.342;9.662;2023-05-03T06:34:53;102346.78;;;26.71;37.19
11648;BME280;5880;52.342;9.662;2023-05-03T06:37:18;102342.03;;;26.71;36.61
11648;BME280;5880;52.342;9.662;2023-05-03T06:39:44;102352.81;;;26.83;35.89
11648;BME280;5880;52.342;9.662;2023-05-03T06:42:09;102348.94;;;26.98;35.76
11648;BME280;5880;52.342;9.662;2023-05-03T06:44:35;102348.19;;;27.11;35.52
11648;BME280;5880;52.342;9.662;2023-05-03T06:47:01;102355.72;;;27.35;35.46
11648;BME280;5880;52.342;9.662;2023-05-03T06:49:26;102353.22;;;27.33;34.50
11648;BME280;5880;52.342;9.662;2023-05-03T06:51:52;102350.25;;;27.25;33.93
11648;BME280;5880;52.342;9.662;2023-05-03T06:54:18;102337.13;;;27.20;33.73
11648;BME280;5880;52.342;9.662;2023-05-03T06:56:44;102341.44;;;27.12;33.47
11648;BME280;5880;52.342;9.662;2023-05-03T06:59:11;102343.63;;;26.97;33.68
11648;BME280;5880;52.342;9.662;2023-05-03T07:01:36;102339.34;;;26.80;33.27
11648;BME280;5880;52.342;9.662;2023-05-03T07:04:02;102339.03;;;26.63;32.86
11648;BME280;5880;52.342;9.662;2023-05-03T07:06:27;102332.16;;;26.55;32.81
11648;BME280;5880;52.342;9.662;2023-05-03T07:08:53;102336.53;;;26.61;32.33
11648;BME280;5880;52.342;9.662;2023-05-03T07:11:21;102342.03;;;26.71;31.94
11648;BME280;5880;52.342;9.662;2023-05-03T07:13:53;102346.19;;;26.74;31.70
11648;BME280;5880;52.342;9.662;2023-05-03T07:16:20;102340.63;;;26.69;31.30
11648;BME280;5880;52.342;9.662;2023-05-03T07:18:47;102339.69;;;26.55;30.73
11648;BME280;5880;52.342;9.662;2023-05-03T07:21:13;102343.22;;;26.41;30.87
11648;BME280;5880;52.342;9.662;2023-05-03T07:23:40;102338.38;;;26.47;31.14
11648;BME280;5880;52.342;9.662;2023-05-03T07:26:07;102339.22;;;26.71;31.16
11648;BME280;5880;52.342;9.662;2023-05-03T07:28:32;102332.25;;;26.88;30.63
11648;BME280;5880;52.342;9.662;2023-05-03T07:30:58;102331.50;;;27.01;30.20
11648;BME280;5880;52.342;9.662;2023-05-03T07:33:24;102324.06;;;27.10;30.30
11648;BME280;5880;52.342;9.662;2023-05-03T07:35:50;102335.00;;;26.93;29.23
11648;BME280;5880;52.342;9.662;2023-05-03T07:38:17;102337.13;;;26.58;28.43
11648;BME280;5880;52.342;9.662;2023-05-03T07:40:43;102328.13;;;26.13;28.24
11648;BME280;5880;52.342;9.662;2023-05-03T07:43:09;102333.34;;;25.61;28.00
11648;BME280;5880;52.342;9.662;2023-05-03T07:45:36;102327.03;;;25.06;28.04
11648;BME280;5880;52.342;9.662;2023-05-03T07:48:01;102332.06;;;24.54;28.11
11648;BME280;5880;52.342;9.662;2023-05-03T07:50:29;102335.53;;;24.05;28.31
11648;BME280;5880;52.342;9.662;2023-05-03T07:52:55;102324.38;;;23.54;28.34
11648;BME280;5880;52.342;9.662;2023-05-03T07:55:21;102317.34;;;23.05;28.57
11648;BME280;5880;52.342;9.662;2023-05-03T07:57:47;102324.78;;;22.74;29.17
11648;BME280;5880;52.342;9.662;2023-05-03T08:00:14;102328.03;;;22.50;29.38
11648;BME280;5880;52.342;9.662;2023-05-03T08:02:42;102307.00;;;22.22;29.69
11648;BME280;5880;52.342;9.662;2023-05-03T08:05:10;102313.25;;;22.02;29.87
11648;BME280;5880;52.342;9.662;2023-05-03T08:07:38;102313.41;;;21.80;30.08
11648;BME280;5880;52.342;9.662;2023-05-03T08:10:05;102321.44;;;21.77;30.48
11648;BME280;5880;52.342;9.662;2023-05-03T08:12:30;102314.66;;;21.67;30.34
11648;BME280;5880;52.342;9.662;2023-05-03T08:14:56;102312.13;;;21.61;30.34
11648;BME280;5880;52.342;9.662;2023-05-03T08:17:22;102316.22;;;21.53;30.57
11648;BME280;5880;52.342;9.662;2023-05-03T08:19:49;102310.31;;;21.44;30.81
11648;BME280;5880;52.342;9.662;2023-05-03T08:22:16;102310.41;;;21.27;30.59
11648;BME280;5880;52.342;9.662;2023-05-03T08:24:42;102317.72;;;21.06;30.63
11648;BME280;5880;52.342;9.662;2023-05-03T08:27:08;102319.56;;;20.96;30.76
11648;BME280;5880;52.342;9.662;2023-05-03T08:29:35;102317.44;;;20.81;30.92
11648;BME280;5880;52.342;9.662;2023-05-03T08:32:04;102326.28;;;20.78;31.18
11648;BME280;5880;52.342;9.662;2023-05-03T08:34:30;102325.91;;;20.69;31.10
11648;BME280;5880;52.342;9.662;2023-05-03T08:36:56;102322.19;;;20.58;31.14
11648;BME280;5880;52.342;9.662;2023-05-03T08:39:23;102319.88;;;20.55;30.96
11648;BME280;5880;52.342;9.662;2023-05-03T08:41:51;102312.25;;;20.45;31.28
11648;BME280;5880;52.342;9.662;2023-05-03T08:44:21;102322.28;;;20.47;31.16
11648;BME280;5880;52.342;9.662;2023-05-03T08:46:49;102326.72;;;20.48;31.29
11648;BME280;5880;52.342;9.662;2023-05-03T08:49:16;102318.09;;;20.44;31.30
11648;BME280;5880;52.342;9.662;2023-05-03T08:51:43;102323.38;;;20.45;30.84
11648;BME280;5880;52.342;9.662;2023-05-03T08:54:14;102322.19;;;20.41;31.26
11648;BME280;5880;52.342;9.662;2023-05-03T08:56:42;102313.81;;;20.36;30.91
11648;BME280;5880;52.342;9.662;2023-05-03T08:59:10;102312.56;;;20.27;31.45
11648;BME280;5880;52.342;9.662;2023-05-03T09:01:40;102314.19;;;20.23;31.07
11648;BME280;5880;52.342;9.662;2023-05-03T09:04:08;102301.63;;;20.20;31.34
11648;BME280;5880;52.342;9.662;2023-05-03T09:06:34;102300.56;;;20.21;31.41
11648;BME280;5880;52.342;9.662;2023-05-03T09:09:04;102311.00;;;20.14;31.40
11648;BME280;5880;52.342;9.662;2023-05-03T09:11:33;102311.19;;;20.08;31.65
11648;BME280;5880;52.342;9.662;2023-05-03T09:14:13;102303.63;;;20.03;32.02
11648;BME280;5880;52.342;9.662;2023-05-03T09:16:42;102299.19;;;20.02;31.68
11648;BME280;5880;52.342;9.662;2023-05-03T09:19:13;102298.66;;;20.05;32.05
11648;BME280;5880;52.342;9.662;2023-05-03T09:21:44;102303.09;;;20.06;31.64
11648;BME280;5880;52.342;9.662;2023-05-03T09:24:20;102300.84;;;20.03;31.96
11648;BME280;5880;52.342;9.662;2023-05-03T09:26:49;102292.47;;;19.98;31.72
11648;BME280;5880;52.342;9.662;2023-05-03T09:29:32;102300.44;;;19.94;32.17
11648;BME280;5880;52.342;9.662;2023-05-03T09:32:04;102289.63;;;19.93;32.59
11648;BME280;5880;52.342;9.662;2023-05-03T09:34:32;102286.84;;;19.93;32.26
11648;BME280;5880;52.342;9.662;2023-05-03T09:36:58;102292.63;;;19.91;32.12
11648;BME280;5880;52.342;9.662;2023-05-03T09:39:23;102306.97;;;19.83;31.93
11648;BME280;5880;52.342;9.662;2023-05-03T09:41:49;102306.38;;;19.81;31.76
11648;BME280;5880;52.342;9.662;2023-05-03T09:44:18;102315.75;;;19.97;31.93
11648;BME280;5880;52.342;9.662;2023-05-03T09:47:04;102305.13;;;20.11;31.54
11648;BME280;5880;52.342;9.662;2023-05-03T09:49:31;102304.75;;;20.24;31.72
11648;BME280;5880;52.342;9.662;2023-05-03T09:51:59;102301.22;;;20.29;31.45
11648;BME280;5880;52.342;9.662;2023-05-03T09:54:26;102302.50;;;20.21;31.13
11648;BME280;5880;52.342;9.662;2023-05-03T09:56:53;102299.84;;;20.09;31.58
11648;BME280;5880;52.342;9.662;2023-05-03T09:59:20;102290.22;;;19.95;31.58
11648;BME280;5880;52.342;9.662;2023-05-03T10:01:46;102289.13;;;19.79;31.28
11648;BME280;5880;52.342;9.662;2023-05-03T10:04:16;102290.91;;;19.68;31.80
11648;BME280;5880;52.342;9.662;2023-05-03T10:06:47;102288.25;;;19.61;31.68
11648;BME280;5880;52.342;9.662;2023-05-03T10:09:25;102287.28;;;19.51;31.80
11648;BME280;5880;52.342;9.662;2023-05-03T10:11:53;102296.00;;;19.43;31.95
11648;BME280;5880;52.342;9.662;2023-05-03T10:14:21;102289.03;;;19.40;32.06
11648;BME280;5880;52.342;9.662;2023-05-03T10:16:58;102281.81;;;19.39;32.26
11648;BME280;5880;52.342;9.662;2023-05-03T10:19:33;102288.09;;;19.34;31.63
11648;BME280;5880;52.342;9.662;2023-05-03T10:22:09;102290.53;;;19.31;31.69
11648;BME280;5880;52.342;9.662;2023-05-03T10:24:37;102281.38;;;19.30;32.11
11648;BME280;5880;52.342;9.662;2023-05-03T10:27:23;102278.00;;;19.28;32.29
11648;BME280;5880;52.342;9.662;2023-05-03T10:29:51;102274.16;;;19.29;32.21
11648;BME280;5880;52.342;9.662;2023-05-03T10:32:32;102271.88;;;19.26;32.26
11648;BME280;5880;52.342;9.662;2023-05-03T10:35:11;102270.22;;;19.25;32.13
11648;BME280;5880;52.342;9.662;2023-05-03T10:37:40;102272.03;;;19.19;32.16
11648;BME280;5880;52.342;9.662;2023-05-03T10:40:12;102270.59;;;19.17;32.07
11648;BME280;5880;52.342;9.662;2023-05-03T10:42:55;102271.34;;;19.12;32.14
11648;BME280;5880;52.342;9.662;2023-05-03T10:45:26;102270.44;;;19.07;32.04
11648;BME280;5880;52.342;9.662;2023-05-03T10:50:40;102264.44;;;18.98;32.37
11648;BME280;5880;52.342;9.662;2023-05-03T10:53:07;102265.56;;;18.97;32.25
11648;BME280;5880;52.342;9.662;2023-05-03T10:55:33;102260.25;;;18.95;32.50
11648;BME280;5880;52.342;9.662;2023-05-03T10:58:00;102261.09;;;18.96;32.40
11648;BME280;5880;52.342;9.662;2023-05-03T11:00:40;102264.13;;;18.94;32.36
11648;BME280;5880;52.342;9.662;2023-05-03T11:05:49;102251.03;;;18.90;32.69
11648;BME280;5880;52.342;9.662;2023-05-03T11:08:22;102245.22;;;18.91;32.85
11648;BME280;5880;52.342;9.662;2023-05-03T11:10:49;102250.00;;;18.96;32.76
11648;BME280;5880;52.342;9.662;2023-05-03T11:13:21;102237.56;;;18.98;32.79
11648;BME280;5880;52.342;9.662;2023-05-03T11:15:47;102237.09;;;19.02;32.82
11648;BME280;5880;52.342;9.662;2023-05-03T11:18:13;102253.22;;;19.05;32.54
11648;BME280;5880;52.342;9.662;2023-05-03T11:20:39;102243.47;;;19.02;32.93
11648;BME280;5880;52.342;9.662;2023-05-03T11:23:06;102249.59;;;19.04;32.69
11648;BME280;5880;52.342;9.662;2023-05-03T11:25:32;102243.22;;;19.04;32.57
11648;BME280;5880;52.342;9.662;2023-05-03T11:28:00;102239.59;;;19.03;32.97
11648;BME280;5880;52.342;9.662;2023-05-03T11:30:27;102226.50;;;18.98;32.49
11648;BME280;5880;52.342;9.662;2023-05-03T11:32:54;102233.72;;;19.00;32.34
11648;BME280;5880;52.342;9.662;2023-05-03T11:35:20;102216.34;;;18.87;32.23
11648;BME280;5880;52.342;9.662;2023-05-03T11:37:50;102228.59;;;18.91;32.30
11648;BME280;5880;52.342;9.662;2023-05-03T11:40:16;102215.47;;;18.87;32.42
11648;BME280;5880;52.342;9.662;2023-05-03T11:42:50;102218.75;;;18.84;32.27
11648;BME280;5880;52.342;9.662;2023-05-03T11:45:23;102225.13;;;18.84;32.53
11648;BME280;5880;52.342;9.662;2023-05-03T11:47:50;102231.41;;;18.80;32.12
11648;BME280;5880;52.342;9.662;2023-05-03T11:50:17;102224.56;;;18.70;32.05
11648;BME280;5880;52.342;9.662;2023-05-03T11:52:43;102220.38;;;18.68;32.12
11648;BME280;5880;52.342;9.662;2023-05-03T11:55:11;102213.91;;;18.62;32.33
11648;BME280;5880;52.342;9.662;2023-05-03T11:57:37;102217.59;;;18.68;32.42
11648;BME280;5880;52.342;9.662;2023-05-03T12:00:12;102214.09;;;18.72;32.46
11648;BME280;5880;52.342;9.662;2023-05-03T12:02:47;102213.84;;;18.74;32.64
11648;BME280;5880;52.342;9.662;2023-05-03T12:05:14;102216.75;;;18.79;32.73
11648;BME280;5880;52.342;9.662;2023-05-03T12:07:40;102215.91;;;18.79;32.19
11648;BME280;5880;52.342;9.662;2023-05-03T12:10:16;102215.66;;;18.80;32.45
11648;BME280;5880;52.342;9.662;2023-05-03T12:12:56;102212.03;;;18.80;32.27
11648;BME280;5880;52.342;9.662;2023-05-03T12:15:34;102208.31;;;18.74;32.15
11648;BME280;5880;52.342;9.662;2023-05-03T12:18:10;102198.56;;;18.71;32.50
11648;BME280;5880;52.342;9.662;2023-05-03T12:20:37;102190.84;;;18.73;32.66
11648;BME280;5880;52.342;9.662;2023-05-03T12:23:06;102188.19;;;18.79;32.48
11648;BME280;5880;52.342;9.662;2023-05-03T12:25:40;102183.50;;;18.79;32.37
11648;BME280;5880;52.342;9.662;2023-05-03T12:28:06;102169.88;;;18.77;32.31
11648;BME280;5880;52.342;9.662;2023-05-03T12:30:32;102174.94;;;18.81;32.34
11648;BME280;5880;52.342;9.662;2023-05-03T12:32:59;102171.16;;;18.87;32.37
11648;BME280;5880;52.342;9.662;2023-05-03T12:35:25;102170.69;;;18.90;31.97
11648;BME280;5880;52.342;9.662;2023-05-03T12:37:50;102171.75;;;18.89;32.28
11648;BME280;5880;52.342;9.662;2023-05-03T12:40:18;102173.19;;;18.91;32.10
11648;BME280;5880;52.342;9.662;2023-05-03T12:42:52;102178.47;;;18.93;32.12
11648;BME280;5880;52.342;9.662;2023-05-03T12:45:19;102166.06;;;18.95;32.39
11648;BME280;5880;52.342;9.662;2023-05-03T12:47:44;102166.41;;;18.99;32.51
11648;BME280;5880;52.342;9.662;2023-05-03T12:50:10;102163.94;;;19.03;32.28
11648;BME280;5880;52.342;9.662;2023-05-03T12:52:36;102160.09;;;19.04;32.52
11648;BME280;5880;52.342;9.662;2023-05-03T12:55:06;102168.34;;;19.15;32.31
11648;BME280;5880;52.342;9.662;2023-05-03T12:57:32;102168.66;;;19.19;32.39
11648;BME280;5880;52.342;9.662;2023-05-03T12:59:58;102166.47;;;19.21;32.40
11648;BME280;5880;52.342;9.662;2023-05-03T13:02:24;102162.94;;;19.26;32.36
11648;BME280;5880;52.342;9.662;2023-05-03T13:04:50;102141.59;;;19.26;32.50
11648;BME280;5880;52.342;9.662;2023-05-03T13:07:22;102146.72;;;19.34;32.58
11648;BME280;5880;52.342;9.662;2023-05-03T13:09:50;102142.59;;;19.37;32.58
11648;BME280;5880;52.342;9.662;2023-05-03T13:12:16;102141.84;;;19.42;32.43
11648;BME280;5880;52.342;9.662;2023-05-03T13:14:48;102141.06;;;19.46;32.49